createdAt,value
2022-11-22T00:01:35.217Z,5.87
2022-11-22T00:08:23.384Z,6.00
2022-11-22T00:15:10.713Z,6.20
2022-11-22T00:21:56.318Z,6.20
2022-11-22T00:28:44.608Z,6.35
2022-11-22T00:35:30.032Z,6.30
2022-11-22T00:42:15.425Z,6.78
2022-11-22T00:49:03.467Z,6.28
2022-11-22T00:55:49.213Z,6.60
2022-11-22T01:02:34.821Z,7.45
2022-11-22T01:09:26.107Z,6.68
2022-11-22T01:16:13.979Z,7.30
2022-11-22T01:23:00.334Z,6.40
2022-11-22T01:29:49.372Z,6.88
2022-11-22T01:36:34.840Z,7.10
2022-11-22T01:43:22.871Z,7.47
2022-11-22T01:50:13.888Z,7.75
2022-11-22T01:57:05.131Z,7.15
2022-11-22T02:03:55.821Z,7.18
2022-11-22T02:10:49.705Z,7.55
2022-11-22T02:17:35.108Z,7.50
2022-11-22T02:24:24.475Z,7.75
2022-11-22T02:31:12.711Z,8.27
2022-11-22T02:38:01.918Z,8.02
2022-11-22T02:44:47.344Z,8.80
2022-11-22T02:51:35.337Z,8.32
2022-11-22T02:58:20.776Z,7.75
2022-11-22T03:05:08.286Z,8.60
2022-11-22T03:11:57.796Z,7.75
2022-11-22T03:18:43.218Z,7.97
2022-11-22T03:25:29.778Z,8.48
2022-11-22T03:32:17.811Z,7.82
2022-11-22T03:39:03.420Z,8.38
2022-11-22T04:06:34.005Z,7.63
2022-11-22T04:13:19.660Z,7.95
2022-11-22T04:20:17.309Z,8.60
2022-11-22T04:27:05.379Z,8.50
2022-11-22T04:33:50.724Z,7.90
2022-11-22T04:40:36.393Z,7.30
2022-11-22T04:47:36.851Z,7.15
2022-11-22T04:54:22.475Z,7.93
2022-11-22T05:01:08.279Z,7.55
2022-11-22T05:07:56.770Z,7.78
2022-11-22T05:14:42.239Z,7.43
2022-11-22T05:21:28.062Z,7.80
2022-11-22T05:28:16.144Z,7.60
2022-11-22T05:35:02.355Z,7.20
2022-11-22T05:41:56.113Z,7.13
2022-11-22T05:48:47.736Z,6.82
2022-11-22T05:55:33.899Z,7.55
2022-11-22T06:02:19.493Z,7.07
2022-11-22T06:09:08.110Z,6.50
2022-11-22T06:15:53.506Z,6.70
2022-11-22T06:22:39.045Z,7.18
2022-11-22T06:29:27.383Z,6.57
2022-11-22T06:36:16.328Z,6.50
2022-11-22T06:43:01.731Z,6.75
2022-11-22T06:49:49.759Z,6.60
2022-11-22T06:56:41.504Z,5.72
2022-11-22T07:03:26.967Z,5.90
2022-11-22T07:10:15.200Z,6.60
2022-11-22T07:17:00.768Z,6.22
2022-11-22T07:23:49.097Z,6.28
2022-11-22T07:30:41.179Z,6.45
2022-11-22T07:37:29.795Z,6.18
2022-11-22T07:44:15.246Z,5.68
2022-11-22T07:51:08.590Z,4.90
2022-11-22T07:57:54.093Z,5.82
2022-11-22T08:04:39.556Z,5.18
2022-11-22T08:11:27.460Z,5.70
2022-11-22T08:18:13.235Z,5.53
2022-11-22T08:24:58.657Z,5.00
2022-11-22T08:31:47.177Z,5.68
2022-11-22T08:38:32.681Z,6.05
2022-11-22T08:45:18.380Z,5.65
2022-11-22T08:52:07.174Z,5.97
2022-11-22T08:58:52.672Z,5.38
2022-11-22T09:12:49.893Z,5.53
2022-11-22T09:19:35.357Z,6.20
2022-11-22T09:26:24.433Z,5.50
2022-11-22T09:33:13.896Z,5.88
2022-11-22T09:39:59.363Z,6.22
2022-11-22T09:46:54.774Z,5.40
2022-11-22T09:53:49.879Z,5.90
2022-11-22T10:00:35.765Z,5.80
2022-11-22T10:07:27.736Z,6.40
2022-11-22T10:14:30.712Z,5.22
2022-11-22T10:21:18.063Z,6.18
2022-11-22T10:28:14.319Z,6.35
2022-11-22T10:35:37.766Z,5.90
2022-11-22T10:42:41.162Z,5.45
2022-11-22T10:49:49.589Z,5.45
2022-11-22T10:56:50.646Z,5.68
2022-11-22T11:03:39.006Z,5.65
2022-11-22T11:10:34.008Z,5.90
2022-11-22T11:17:29.566Z,5.47
2022-11-22T11:24:18.000Z,5.60
2022-11-22T11:31:11.402Z,5.55
2022-11-22T11:37:59.716Z,5.80
2022-11-22T11:44:45.080Z,5.68
2022-11-22T11:51:41.137Z,5.82
2022-11-22T11:58:29.275Z,5.50
2022-11-22T12:05:31.398Z,5.50
2022-11-22T12:12:34.548Z,5.20
2022-11-22T12:19:31.756Z,5.40
2022-11-22T12:26:18.290Z,5.43
2022-11-22T12:33:08.007Z,5.18
2022-11-22T12:40:02.643Z,5.13
2022-11-22T12:46:52.756Z,5.10
2022-11-22T12:53:44.327Z,5.75
2022-11-22T13:00:42.030Z,5.32
2022-11-22T13:07:42.027Z,5.43
2022-11-22T13:14:36.782Z,5.43
2022-11-22T13:21:33.964Z,5.40
2022-11-22T13:28:24.575Z,4.90
2022-11-22T13:35:26.928Z,4.97
2022-11-22T13:42:21.545Z,4.90
2022-11-22T13:49:20.392Z,6.00
2022-11-22T13:56:51.108Z,5.50
2022-11-22T14:03:46.572Z,5.43
2022-11-22T14:10:37.429Z,5.35
2022-11-22T14:17:37.119Z,5.30
2022-11-22T14:24:49.378Z,5.63
2022-11-22T14:31:37.651Z,5.80
2022-11-22T14:38:38.749Z,5.30
2022-11-22T14:45:38.869Z,5.50
2022-11-22T14:52:27.553Z,5.45
2022-11-22T14:59:39.543Z,5.03
2022-11-22T15:09:19.925Z,4.80
2022-11-22T15:14:31.031Z,5.10
2022-11-22T15:57:45.586Z,5.25
2022-11-22T16:04:34.499Z,4.97
2022-11-22T16:11:25.024Z,5.80
2022-11-22T16:18:17.177Z,4.80
2022-11-22T16:25:34.482Z,5.88
2022-11-22T16:32:22.459Z,5.75
2022-11-22T16:39:07.862Z,5.70
2022-11-22T16:45:54.572Z,5.78
2022-11-22T16:52:42.651Z,5.35
2022-11-22T16:59:28.389Z,5.93
2022-11-22T17:06:19.015Z,5.90
2022-11-22T17:13:07.164Z,5.65
2022-11-22T17:19:53.950Z,5.65
2022-11-22T17:26:40.021Z,5.72
2022-11-22T17:33:28.935Z,6.45
2022-11-22T17:40:16.416Z,6.40
2022-11-22T17:47:02.347Z,5.88
2022-11-22T17:53:50.590Z,6.22
2022-11-22T18:00:36.126Z,5.68
2022-11-22T18:07:21.628Z,6.18
2022-11-22T18:14:09.729Z,6.78
2022-11-22T18:20:57.739Z,6.43
2022-11-22T18:27:43.098Z,6.28
2022-11-22T18:34:32.234Z,6.70
2022-11-22T18:41:17.918Z,6.10
2022-11-22T18:48:04.920Z,6.60
2022-11-22T19:01:40.801Z,6.68
2022-11-22T19:08:26.250Z,7.50
2022-11-22T19:15:16.152Z,7.68
2022-11-22T19:22:02.792Z,7.57
2022-11-22T19:28:48.650Z,6.75
2022-11-22T19:35:37.340Z,7.37
2022-11-22T19:42:22.795Z,7.10
2022-11-22T19:49:09.080Z,8.38
2022-11-22T19:55:57.361Z,7.40
2022-11-22T20:02:42.875Z,8.48
2022-11-22T20:09:29.373Z,7.93
2022-11-22T20:16:22.296Z,7.60
2022-11-22T20:23:07.828Z,7.22
2022-11-22T20:29:53.250Z,7.30
2022-11-22T20:36:41.459Z,7.30
2022-11-22T20:43:26.961Z,8.00
2022-11-22T20:50:13.087Z,6.85
2022-11-22T20:57:01.187Z,7.20
2022-11-22T21:03:48.341Z,7.28
2022-11-22T21:10:34.197Z,7.53
2022-11-22T21:17:41.983Z,7.50
2022-11-22T21:24:27.649Z,7.40
2022-11-22T21:31:13.676Z,7.50
2022-11-22T21:38:02.420Z,7.20
2022-11-22T21:44:47.781Z,7.60
2022-11-22T21:51:33.462Z,7.43
2022-11-22T21:58:23.029Z,8.18
2022-11-22T22:05:09.495Z,7.40
2022-11-22T22:11:55.035Z,7.32
2022-11-22T22:18:43.766Z,7.80
2022-11-22T22:25:29.576Z,7.20
2022-11-22T22:32:14.978Z,7.10
2022-11-22T22:39:03.271Z,7.38
2022-11-22T22:45:48.658Z,7.80
2022-11-22T22:52:34.781Z,8.07
2022-11-22T22:59:23.010Z,7.50
2022-11-22T23:06:10.947Z,7.70
2022-11-22T23:12:56.495Z,7.32
2022-11-22T23:19:44.807Z,7.10
2022-11-22T23:26:31.088Z,7.80
2022-11-22T23:33:16.602Z,7.50
2022-11-22T23:40:04.644Z,7.22
2022-11-22T23:46:49.987Z,7.43
2022-11-22T23:53:35.743Z,7.53
